Time,TemperatureF,DewpointF,PressureIn,WindDirection,WindDirectionDegrees,WindSpeedMPH,WindSpeedGustMPH,Humidity,HourlyPrecipIn,Conditions,Clouds,dailyrainin,SoftwareType,DateUTC
2013-06-30 00:00:00,64.2,61.2,29.54,NE,45,0.0,0.0,90,0.01,,SKC,0.00,VWS V14.01,2013-06-30 04:00:00,
2013-06-30 01:00:00,63.5,60.8,29.55,NE,45,0.0,0.0,91,0.00,,SKC,0.00,VWS V14.01,2013-06-30 05:00:00,
2013-06-30 02:00:00,62.7,60.3,29.57,NE,45,0.0,0.0,92,0.00,,SKC,0.00,VWS V14.01,2013-06-30 06:00:00,
2013-06-30 03:00:00,62.1,59.8,29.57,NE,45,0.0,0.0,92,0.00,,SKC,0.00,VWS V14.01,2013-06-30 07:00:00,
2013-06-30 04:00:00,61.2,59.2,29.56,NE,45,0.0,0.0,93,0.00,,SKC,0.00,VWS V14.01,2013-06-30 08:00:00,
2013-06-30 05:00:00,60.9,58.9,29.57,NE,45,0.0,0.0,93,0.00,,SKC,0.00,VWS V14.01,2013-06-30 09:00:00,
2013-06-30 06:00:00,61.6,59.9,29.58,NE,45,0.0,0.0,94,0.00,,SKC,0.00,VWS V14.01,2013-06-30 10:00:00,
2013-06-30 07:00:00,62.6,60.8,29.59,NE,45,0.0,0.0,94,0.00,,SKC,0.00,VWS V14.01,2013-06-30 11:00:00,
2013-06-30 08:00:00,64.0,62.2,29.61,East,90,0.0,7.0,94,0.00,,SKC,0.00,VWS V14.01,2013-06-30 12:00:00,
2013-06-30 09:00:00,65.0,63.2,29.63,SE,135,0.0,6.0,94,0.00,,SKC,0.00,VWS V14.01,2013-06-30 13:00:00,
2013-06-30 10:00:00,66.5,63.8,29.63,SSE,158,0.0,6.0,91,0.00,,SKC,0.00,VWS V14.01,2013-06-30 14:00:00,
2013-06-30 11:00:00,68.9,63.2,29.64,East,90,1.0,7.0,82,0.00,,SKC,0.00,VWS V14.01,2013-06-30 15:00:00,
2013-06-30 12:00:00,70.8,62.5,29.65,East,90,1.0,7.0,75,0.00,,SKC,0.00,VWS V14.01,2013-06-30 16:00:00,
2013-06-30 13:00:00,74.5,63.7,29.64,East,90,1.0,6.0,69,0.00,,SKC,0.00,VWS V14.01,2013-06-30 17:00:00,
2013-06-30 14:00:00,77.2,63.2,29.64,East,90,1.0,7.0,62,0.00,,SKC,0.00,VWS V14.01,2013-06-30 18:00:00,
2013-06-30 15:00:00,77.2,64.1,29.62,East,90,1.0,6.0,64,0.00,,SKC,0.00,VWS V14.01,2013-06-30 19:00:00,
2013-06-30 16:00:00,78.4,63.8,29.62,East,90,2.0,10.0,61,0.00,,SKC,0.00,VWS V14.01,2013-06-30 20:00:00,
2013-06-30 17:00:00,79.0,63.0,29.63,ESE,112,2.0,10.0,58,0.00,,SKC,0.00,VWS V14.01,2013-06-30 21:00:00,
2013-06-30 18:00:00,78.3,65.6,29.64,East,90,1.0,10.0,65,0.00,,SKC,0.00,VWS V14.01,2013-06-30 22:00:00,
2013-06-30 19:00:00,77.2,64.1,29.66,East,90,1.0,9.0,64,0.00,,SKC,0.00,VWS V14.01,2013-06-30 23:00:00,
2013-06-30 20:00:00,73.9,68.1,29.67,ESE,112,0.0,7.0,82,0.04,,SKC,0.04,VWS V14.01,2013-07-01 00:00:00,
2013-06-30 21:00:00,70.3,65.2,29.69,SSE,158,0.0,4.0,84,0.04,,SKC,0.04,VWS V14.01,2013-07-01 01:00:00,
2013-06-30 22:00:00,68.9,63.5,29.71,SSE,158,0.0,4.0,83,0.00,,SKC,0.04,VWS V14.01,2013-07-01 02:00:00,
2013-06-30 23:00:00,67.8,62.8,29.71,SSE,158,0.0,3.0,84,0.00,,SKC,0.04,VWS V14.01,2013-07-01 03:00:00,